Dankov, Russia
Current Conditions -  °F | °C
As of 1:00 PM on Thursday 23 Oct 2014 (Local Time) from UUOO Reporting Station
Clear Clear  
Wind Chill: 20°   Ceiling: Unl
Heat Index: 28°   Visibility: 6mi
Dew Point: 14°   Wind: 9mph
Humidity: 55%   Direction: 350°N
Pressure: 30.21"   Gusts: 16mph
Location:  53.25°N, 39.15°E
Report Text: UUOO 231000Z 35004G07MPS CAVOK M02/M10 Q1023 NOSIG RMK 30090070
Loading
Personal Weather Stations






























Interactive Weather Map
Tropical Storm Tracking
New forecast layout! Learn more

10-Day Weather Forecast

Advertisements
Track Severe Weather on mobile